sensor_id;sensor_type;location;lat;lon;timestamp;pressure;altitude;pressure_sealevel;temperature;humidity
5053;BME280;2545;50.892;5.740;2023-06-04T00:01:38;55900.31;;;-142.21;48.99
5053;BME280;2545;50.892;5.740;2023-06-04T00:04:03;55868.94;;;-142.21;47.75
5053;BME280;2545;50.892;5.740;2023-06-04T00:06:29;55912.09;;;-142.21;47.86
5053;BME280;2545;50.892;5.740;2023-06-04T00:08:54;55912.09;;;-142.21;49.76
5053;BME280;2545;50.892;5.740;2023-06-04T00:11:19;55906.22;;;-142.21;48.18
5053;BME280;2545;50.892;5.740;2023-06-04T00:13:45;55921.91;;;-142.21;49.37
5053;BME280;2545;50.892;5.740;2023-06-04T00:16:10;55968.94;;;-142.21;48.43
5053;BME280;2545;50.892;5.740;2023-06-04T00:18:36;55916.00;;;-142.21;48.32
5053;BME280;2545;50.892;5.740;2023-06-04T00:21:01;55886.59;;;-142.21;48.21
5053;BME280;2545;50.892;5.740;2023-06-04T00:23:26;55882.69;;;-142.21;48.37
5053;BME280;2545;50.892;5.740;2023-06-04T00:25:52;55894.44;;;-142.21;48.18
5053;BME280;2545;50.892;5.740;2023-06-04T00:28:17;55884.63;;;-142.21;48.54
5053;BME280;2545;50.892;5.740;2023-06-04T00:30:42;55886.59;;;-142.21;49.74
5053;BME280;2545;50.892;5.740;2023-06-04T00:33:07;55921.91;;;-142.21;50.05
5053;BME280;2545;50.892;5.740;2023-06-04T00:35:33;55923.84;;;-142.21;50.06
5053;BME280;2545;50.892;5.740;2023-06-04T00:37:58;55888.56;;;-142.21;50.24
5053;BME280;2545;50.892;5.740;2023-06-04T00:40:24;55919.94;;;-142.21;48.92
5053;BME280;2545;50.892;5.740;2023-06-04T00:42:50;55890.53;;;-142.21;48.91
5053;BME280;2545;50.892;5.740;2023-06-04T00:45:15;55861.09;;;-142.21;47.61
5053;BME280;2545;50.892;5.740;2023-06-04T00:47:43;55927.78;;;-142.21;46.98
5053;BME280;2545;50.892;5.740;2023-06-04T00:50:10;55880.72;;;-142.21;46.49
5053;BME280;2545;50.892;5.740;2023-06-04T00:52:35;55892.47;;;-142.21;45.72
5053;BME280;2545;50.892;5.740;2023-06-04T00:55:02;55888.56;;;-142.21;45.63
5053;BME280;2545;50.892;5.740;2023-06-04T00:57:27;55890.53;;;-142.21;45.76
5053;BME280;2545;50.892;5.740;2023-06-04T00:59:53;55900.31;;;-142.21;45.24
5053;BME280;2545;50.892;5.740;2023-06-04T01:02:21;55896.41;;;-142.21;44.68
5053;BME280;2545;50.892;5.740;2023-06-04T01:07:54;55882.69;;;-142.21;44.31
5053;BME280;2545;50.892;5.740;2023-06-04T01:10:21;55935.63;;;-142.21;44.43
5053;BME280;2545;50.892;5.740;2023-06-04T01:12:47;55894.44;;;-142.21;44.12
5053;BME280;2545;50.892;5.740;2023-06-04T01:15:12;55890.53;;;-142.21;44.44
5053;BME280;2545;50.892;5.740;2023-06-04T01:17:47;55908.16;;;-142.21;44.46
5053;BME280;2545;50.892;5.740;2023-06-04T01:23:19;55900.31;;;-142.21;44.25
5053;BME280;2545;50.892;5.740;2023-06-04T01:25:52;55868.94;;;-142.21;44.53
5053;BME280;2545;50.892;5.740;2023-06-04T01:28:19;55904.25;;;-142.21;45.15
5053;BME280;2545;50.892;5.740;2023-06-04T01:30:46;55900.31;;;-142.21;44.57
5053;BME280;2545;50.892;5.740;2023-06-04T01:33:17;55896.41;;;-142.21;44.21
5053;BME280;2545;50.892;5.740;2023-06-04T01:35:43;55921.91;;;-142.21;44.49
5053;BME280;2545;50.892;5.740;2023-06-04T01:38:08;55886.59;;;-142.21;44.55
5053;BME280;2545;50.892;5.740;2023-06-04T01:40:34;55902.28;;;-142.21;45.34
5053;BME280;2545;50.892;5.740;2023-06-04T01:43:00;55892.47;;;-142.21;44.92
5053;BME280;2545;50.892;5.740;2023-06-04T01:45:26;55914.06;;;-142.21;45.24
5053;BME280;2545;50.892;5.740;2023-06-04T01:47:52;55917.97;;;-142.21;45.55
5053;BME280;2545;50.892;5.740;2023-06-04T01:50:18;55880.72;;;-142.21;46.02
5053;BME280;2545;50.892;5.740;2023-06-04T01:52:43;55898.38;;;-142.21;46.02
5053;BME280;2545;50.892;5.740;2023-06-04T01:55:12;55867.00;;;-142.21;45.51
5053;BME280;2545;50.892;5.740;2023-06-04T01:57:38;55912.09;;;-142.21;45.88
5053;BME280;2545;50.892;5.740;2023-06-04T02:00:05;55892.47;;;-142.21;46.20
5053;BME280;2545;50.892;5.740;2023-06-04T02:02:35;55890.53;;;-142.21;45.90
5053;BME280;2545;50.892;5.740;2023-06-04T02:05:01;55892.47;;;-142.21;45.88
5053;BME280;2545;50.892;5.740;2023-06-04T02:07:27;55912.09;;;-142.21;45.01
5053;BME280;2545;50.892;5.740;2023-06-04T02:09:52;55874.84;;;-142.21;45.46
5053;BME280;2545;50.892;5.740;2023-06-04T02:12:17;55896.41;;;-142.21;45.64
5053;BME280;2545;50.892;5.740;2023-06-04T02:14:43;55886.59;;;-142.21;45.40
5053;BME280;2545;50.892;5.740;2023-06-04T02:17:10;55892.47;;;-142.21;45.32
5053;BME280;2545;50.892;5.740;2023-06-04T02:19:42;55867.00;;;-142.21;45.74
5053;BME280;2545;50.892;5.740;2023-06-04T02:22:14;55861.09;;;-142.21;45.49
5053;BME280;2545;50.892;5.740;2023-06-04T02:24:40;55898.38;;;-142.21;45.90
5053;BME280;2545;50.892;5.740;2023-06-04T02:27:09;55898.38;;;-142.21;46.29
5053;BME280;2545;50.892;5.740;2023-06-04T02:29:34;55884.63;;;-142.21;45.83
5053;BME280;2545;50.892;5.740;2023-06-04T02:32:01;55904.25;;;-142.21;46.10
5053;BME280;2545;50.892;5.740;2023-06-04T02:34:26;55941.50;;;-142.21;45.93
5053;BME280;2545;50.892;5.740;2023-06-04T02:36:51;55919.94;;;-142.21;46.06
5053;BME280;2545;50.892;5.740;2023-06-04T02:39:18;55921.91;;;-142.21;46.08
5053;BME280;2545;50.892;5.740;2023-06-04T02:41:44;55886.59;;;-142.21;46.47
5053;BME280;2545;50.892;5.740;2023-06-04T02:44:09;55919.94;;;-142.21;46.94
5053;BME280;2545;50.892;5.740;2023-06-04T02:46:35;55886.59;;;-142.21;46.89
5053;BME280;2545;50.892;5.740;2023-06-04T02:49:00;55900.31;;;-142.21;47.13
5053;BME280;2545;50.892;5.740;2023-06-04T02:51:25;55892.47;;;-142.21;46.70
5053;BME280;2545;50.892;5.740;2023-06-04T02:53:51;55908.16;;;-142.21;47.20
5053;BME280;2545;50.892;5.740;2023-06-04T02:56:17;55908.16;;;-142.21;47.09
5053;BME280;2545;50.892;5.740;2023-06-04T02:58:54;55921.91;;;-142.21;46.88
5053;BME280;2545;50.892;5.740;2023-06-04T03:01:23;55896.41;;;-142.21;47.01
5053;BME280;2545;50.892;5.740;2023-06-04T03:03:50;55878.75;;;-142.21;47.13
5053;BME280;2545;50.892;5.740;2023-06-04T03:06:16;55886.59;;;-142.21;47.81
5053;BME280;2545;50.892;5.740;2023-06-04T03:08:42;55910.13;;;-142.21;48.39
5053;BME280;2545;50.892;5.740;2023-06-04T03:11:08;55931.69;;;-142.21;48.35
5053;BME280;2545;50.892;5.740;2023-06-04T03:13:35;55931.69;;;-142.21;48.53
5053;BME280;2545;50.892;5.740;2023-06-04T03:16:01;55896.41;;;-142.21;49.35
5053;BME280;2545;50.892;5.740;2023-06-04T03:18:27;55916.00;;;-142.21;49.18
5053;BME280;2545;50.892;5.740;2023-06-04T03:20:53;55904.25;;;-142.21;49.61
5053;BME280;2545;50.892;5.740;2023-06-04T03:23:19;55919.94;;;-142.21;49.54
5053;BME280;2545;50.892;5.740;2023-06-04T03:25:45;55890.53;;;-142.21;49.66
5053;BME280;2545;50.892;5.740;2023-06-04T03:28:10;55878.75;;;-142.21;49.61
5053;BME280;2545;50.892;5.740;2023-06-04T03:30:35;55908.16;;;-142.21;50.19
5053;BME280;2545;50.892;5.740;2023-06-04T03:33:00;55898.38;;;-142.21;49.33
5053;BME280;2545;50.892;5.740;2023-06-04T03:35:26;55898.38;;;-142.21;49.95
5053;BME280;2545;50.892;5.740;2023-06-04T03:37:51;55902.28;;;-142.21;49.72
5053;BME280;2545;50.892;5.740;2023-06-04T03:40:16;55872.88;;;-142.21;49.78
5053;BME280;2545;50.892;5.740;2023-06-04T03:42:42;55910.13;;;-142.21;50.40
5053;BME280;2545;50.892;5.740;2023-06-04T03:45:07;55912.09;;;-142.21;49.81
5053;BME280;2545;50.892;5.740;2023-06-04T03:47:33;55904.25;;;-142.21;50.31
5053;BME280;2545;50.892;5.740;2023-06-04T03:49:58;55861.09;;;-142.21;50.70
5053;BME280;2545;50.892;5.740;2023-06-04T03:52:23;55912.09;;;-142.21;50.77
5053;BME280;2545;50.892;5.740;2023-06-04T03:54:49;55892.47;;;-142.21;51.30
5053;BME280;2545;50.892;5.740;2023-06-04T03:57:14;55870.91;;;-142.21;51.36
5053;BME280;2545;50.892;5.740;2023-06-04T03:59:39;55868.94;;;-142.21;51.98
5053;BME280;2545;50.892;5.740;2023-06-04T04:02:05;55904.25;;;-142.21;51.76
5053;BME280;2545;50.892;5.740;2023-06-04T04:04:31;55868.94;;;-142.21;51.57
5053;BME280;2545;50.892;5.740;2023-06-04T04:06:58;55912.09;;;-142.21;51.68
5053;BME280;2545;50.892;5.740;2023-06-04T04:09:25;55908.16;;;-142.21;51.32
5053;BME280;2545;50.892;5.740;2023-06-04T04:11:50;55900.31;;;-142.21;52.75
5053;BME280;2545;50.892;5.740;2023-06-04T04:14:16;55937.56;;;-142.21;52.78
5053;BME280;2545;50.892;5.740;2023-06-04T04:16:41;55904.25;;;-142.21;53.46
5053;BME280;2545;50.892;5.740;2023-06-04T04:19:06;55878.75;;;-142.21;53.75
5053;BME280;2545;50.892;5.740;2023-06-04T04:21:34;55900.31;;;-142.21;53.78
5053;BME280;2545;50.892;5.740;2023-06-04T04:24:02;55884.63;;;-142.21;53.38
5053;BME280;2545;50.892;5.740;2023-06-04T04:26:28;55896.41;;;-142.21;53.66
5053;BME280;2545;50.892;5.740;2023-06-04T04:28:53;55898.38;;;-142.21;53.75
5053;BME280;2545;50.892;5.740;2023-06-04T04:31:26;55921.91;;;-142.21;53.79
5053;BME280;2545;50.892;5.740;2023-06-04T04:33:52;55878.75;;;-142.21;53.76
5053;BME280;2545;50.892;5.740;2023-06-04T04:36:18;55917.97;;;-142.21;54.00
5053;BME280;2545;50.892;5.740;2023-06-04T04:38:46;55896.41;;;-142.21;55.32
5053;BME280;2545;50.892;5.740;2023-06-04T04:41:20;55882.69;;;-142.21;54.57
5053;BME280;2545;50.892;5.740;2023-06-04T04:43:48;55914.06;;;-142.21;54.20
5053;BME280;2545;50.892;5.740;2023-06-04T04:46:13;55902.28;;;-142.21;54.97
5053;BME280;2545;50.892;5.740;2023-06-04T04:48:38;55916.00;;;-142.21;54.95
5053;BME280;2545;50.892;5.740;2023-06-04T04:51:05;55900.31;;;-142.21;54.54
5053;BME280;2545;50.892;5.740;2023-06-04T04:53:31;55902.28;;;-142.21;54.90
5053;BME280;2545;50.892;5.740;2023-06-04T04:55:57;55916.00;;;-142.21;55.42
5053;BME280;2545;50.892;5.740;2023-06-04T04:58:22;55935.63;;;-142.21;54.74
5053;BME280;2545;50.892;5.740;2023-06-04T05:00:48;55906.22;;;-142.21;55.01
5053;BME280;2545;50.892;5.740;2023-06-04T05:03:13;55923.84;;;-142.21;54.54
5053;BME280;2545;50.892;5.740;2023-06-04T05:05:38;55906.22;;;-142.21;55.01
5053;BME280;2545;50.892;5.740;2023-06-04T05:08:04;55908.16;;;-142.21;55.55
5053;BME280;2545;50.892;5.740;2023-06-04T05:10:29;55896.41;;;-142.21;56.03
5053;BME280;2545;50.892;5.740;2023-06-04T05:12:57;55902.28;;;-142.21;55.81
5053;BME280;2545;50.892;5.740;2023-06-04T05:15:22;55923.84;;;-142.21;55.67
5053;BME280;2545;50.892;5.740;2023-06-04T05:17:49;55902.28;;;-142.21;55.27
5053;BME280;2545;50.892;5.740;2023-06-04T05:20:17;55876.78;;;-142.21;55.86
5053;BME280;2545;50.892;5.740;2023-06-04T05:22:44;55898.38;;;-142.21;55.13
5053;BME280;2545;50.892;5.740;2023-06-04T05:25:11;55896.41;;;-142.21;54.99
5053;BME280;2545;50.892;5.740;2023-06-04T05:27:36;55843.47;;;-142.21;55.00
5053;BME280;2545;50.892;5.740;2023-06-04T05:30:03;55894.44;;;-142.21;55.77
5053;BME280;2545;50.892;5.740;2023-06-04T05:32:28;55882.69;;;-142.21;55.76
5053;BME280;2545;50.892;5.740;2023-06-04T05:34:54;55929.75;;;-142.21;55.93
5053;BME280;2545;50.892;5.740;2023-06-04T05:37:24;55888.56;;;-142.21;55.53
5053;BME280;2545;50.892;5.740;2023-06-04T05:39:50;55961.09;;;-142.21;54.93
5053;BME280;2545;50.892;5.740;2023-06-04T05:42:15;55925.81;;;-142.21;54.82
5053;BME280;2545;50.892;5.740;2023-06-04T05:44:41;55916.00;;;-142.21;54.83
5053;BME280;2545;50.892;5.740;2023-06-04T05:47:06;55878.75;;;-142.21;54.85
5053;BME280;2545;50.892;5.740;2023-06-04T05:49:34;55908.16;;;-142.21;55.54
5053;BME280;2545;50.892;5.740;2023-06-04T05:51:59;55892.47;;;-142.21;55.23
5053;BME280;2545;50.892;5.740;2023-06-04T05:54:25;55912.09;;;-142.21;55.16
5053;BME280;2545;50.892;5.740;2023-06-04T05:56:50;55898.38;;;-142.21;54.65
5053;BME280;2545;50.892;5.740;2023-06-04T05:59:15;55898.38;;;-142.21;53.94
5053;BME280;2545;50.892;5.740;2023-06-04T06:01:40;55894.44;;;-142.21;54.42
5053;BME280;2545;50.892;5.740;2023-06-04T06:04:06;55876.78;;;-142.21;54.69
5053;BME280;2545;50.892;5.740;2023-06-04T06:06:32;55890.53;;;-142.21;54.67
5053;BME280;2545;50.892;5.740;2023-06-04T06:08:57;55949.34;;;-142.21;54.33
5053;BME280;2545;50.892;5.740;2023-06-04T06:11:23;55923.84;;;-142.21;54.34
5053;BME280;2545;50.892;5.740;2023-06-04T06:13:48;55927.78;;;-142.21;54.71
5053;BME280;2545;50.892;5.740;2023-06-04T06:16:14;55927.78;;;-142.21;54.43
5053;BME280;2545;50.892;5.740;2023-06-04T06:18:39;55890.53;;;-142.21;54.02
5053;BME280;2545;50.892;5.740;2023-06-04T06:21:05;55880.72;;;-142.21;53.35
5053;BME280;2545;50.892;5.740;2023-06-04T06:23:30;55882.69;;;-142.21;53.43
5053;BME280;2545;50.892;5.740;2023-06-04T06:25:56;55908.16;;;-142.21;52.96
5053;BME280;2545;50.892;5.740;2023-06-04T06:28:22;55912.09;;;-142.21;52.63
5053;BME280;2545;50.892;5.740;2023-06-04T06:30:47;55908.16;;;-142.21;53.00
5053;BME280;2545;50.892;5.740;2023-06-04T06:33:13;55868.94;;;-142.21;52.41
5053;BME280;2545;50.892;5.740;2023-06-04T06:35:38;55912.09;;;-142.21;51.93
5053;BME280;2545;50.892;5.740;2023-06-04T06:38:04;55900.31;;;-142.21;52.68
5053;BME280;2545;50.892;5.740;2023-06-04T06:40:29;55898.38;;;-142.21;52.27
5053;BME280;2545;50.892;5.740;2023-06-04T06:42:55;55884.63;;;-142.21;51.66
5053;BME280;2545;50.892;5.740;2023-06-04T06:45:21;55943.47;;;-142.21;51.98
5053;BME280;2545;50.892;5.740;2023-06-04T06:47:46;55896.41;;;-142.21;50.86
5053;BME280;2545;50.892;5.740;2023-06-04T06:50:11;55894.44;;;-142.21;50.40
5053;BME280;2545;50.892;5.740;2023-06-04T06:52:37;55886.59;;;-142.21;50.46
5053;BME280;2545;50.892;5.740;2023-06-04T06:55:04;55898.38;;;-142.21;49.65
5053;BME280;2545;50.892;5.740;2023-06-04T06:57:29;55874.84;;;-142.21;49.94
5053;BME280;2545;50.892;5.740;2023-06-04T06:59:54;55921.91;;;-142.21;49.37
5053;BME280;2545;50.892;5.740;2023-06-04T07:02:20;55876.78;;;-142.21;48.07
5053;BME280;2545;50.892;5.740;2023-06-04T07:04:45;55890.53;;;-142.21;48.99
5053;BME280;2545;50.892;5.740;2023-06-04T07:07:11;55884.63;;;-142.21;48.28
5053;BME280;2545;50.892;5.740;2023-06-04T07:09:36;55894.44;;;-142.21;48.04
5053;BME280;2545;50.892;5.740;2023-06-04T07:12:01;55859.16;;;-142.21;47.48
5053;BME280;2545;50.892;5.740;2023-06-04T07:14:27;55833.66;;;-142.21;47.98
5053;BME280;2545;50.892;5.740;2023-06-04T07:16:52;55876.78;;;-142.21;46.88
5053;BME280;2545;50.892;5.740;2023-06-04T07:19:17;55906.22;;;-142.21;47.94
5053;BME280;2545;50.892;5.740;2023-06-04T07:21:43;55912.09;;;-142.21;48.39
5053;BME280;2545;50.892;5.740;2023-06-04T07:24:08;55847.38;;;-142.21;46.61
5053;BME280;2545;50.892;5.740;2023-06-04T07:26:33;55921.91;;;-142.21;46.58
5053;BME280;2545;50.892;5.740;2023-06-04T07:28:59;55884.63;;;-142.21;46.06
5053;BME280;2545;50.892;5.740;2023-06-04T07:31:24;55845.44;;;-142.21;45.01
5053;BME280;2545;50.892;5.740;2023-06-04T07:33:50;55888.56;;;-142.21;45.63
5053;BME280;2545;50.892;5.740;2023-06-04T07:36:15;55906.22;;;-142.21;45.43
5053;BME280;2545;50.892;5.740;2023-06-04T07:38:41;55880.72;;;-142.21;44.23
5053;BME280;2545;50.892;5.740;2023-06-04T07:41:07;55870.91;;;-142.21;44.32
5053;BME280;2545;50.892;5.740;2023-06-04T07:43:36;55872.88;;;-142.21;44.53
5053;BME280;2545;50.892;5.740;2023-06-04T07:46:02;55868.94;;;-142.21;45.33
5053;BME280;2545;50.892;5.740;2023-06-04T07:48:28;55863.06;;;-142.21;45.12
5053;BME280;2545;50.892;5.740;2023-06-04T07:50:59;55868.94;;;-142.21;44.17
5053;BME280;2545;50.892;5.740;2023-06-04T07:53:25;55876.78;;;-142.21;43.23
5053;BME280;2545;50.892;5.740;2023-06-04T07:55:51;55890.53;;;-142.21;43.07
5053;BME280;2545;50.892;5.740;2023-06-04T07:58:16;55851.31;;;-142.21;42.56
5053;BME280;2545;50.892;5.740;2023-06-04T08:00:41;55880.72;;;-142.21;42.26
5053;BME280;2545;50.892;5.740;2023-06-04T08:03:07;55825.81;;;-142.21;42.45
5053;BME280;2545;50.892;5.740;2023-06-04T08:05:32;55847.38;;;-142.21;42.13
5053;BME280;2545;50.892;5.740;2023-06-04T08:07:57;55863.06;;;-142.21;41.72
5053;BME280;2545;50.892;5.740;2023-06-04T08:10:22;55872.88;;;-142.21;42.02
5053;BME280;2545;50.892;5.740;2023-06-04T08:12:48;55870.91;;;-142.21;41.13
5053;BME280;2545;50.892;5.740;2023-06-04T08:15:13;55855.22;;;-142.21;40.60
5053;BME280;2545;50.892;5.740;2023-06-04T08:17:38;55814.06;;;-142.21;40.33
5053;BME280;2545;50.892;5.740;2023-06-04T08:20:04;55829.75;;;-142.21;40.03
5053;BME280;2545;50.892;5.740;2023-06-04T08:22:34;55876.78;;;-142.21;39.71
5053;BME280;2545;50.892;5.740;2023-06-04T08:24:59;55867.00;;;-142.21;39.44
5053;BME280;2545;50.892;5.740;2023-06-04T08:27:25;55831.69;;;-142.21;37.54
5053;BME280;2545;50.892;5.740;2023-06-04T08:29:50;55878.75;;;-142.21;38.44
5053;BME280;2545;50.892;5.740;2023-06-04T08:32:17;55837.59;;;-142.21;38.00
5053;BME280;2545;50.892;5.740;2023-06-04T08:34:42;55868.94;;;-142.21;38.72
5053;BME280;2545;50.892;5.740;2023-06-04T08:37:08;55861.09;;;-142.21;38.00
5053;BME280;2545;50.892;5.740;2023-06-04T08:39:33;55825.81;;;-142.21;37.64
5053;BME280;2545;50.892;5.740;2023-06-04T08:42:01;55839.53;;;-142.21;37.72
5053;BME280;2545;50.892;5.740;2023-06-04T08:44:27;55833.66;;;-142.21;36.57
5053;BME280;2545;50.892;5.740;2023-06-04T08:47:05;55865.03;;;-142.21;37.01
5053;BME280;2545;50.892;5.740;2023-06-04T08:49:35;55837.59;;;-142.21;37.15
5053;BME280;2545;50.892;5.740;2023-06-04T08:52:01;55837.59;;;-142.21;37.05
5053;BME280;2545;50.892;5.740;2023-06-04T08:54:27;55806.22;;;-142.21;35.92
5053;BME280;2545;50.892;5.740;2023-06-04T08:56:55;55829.75;;;-142.21;36.01
5053;BME280;2545;50.892;5.740;2023-06-04T08:59:21;55847.38;;;-142.21;36.63
5053;BME280;2545;50.892;5.740;2023-06-04T09:01:47;55855.22;;;-142.21;35.67
5053;BME280;2545;50.892;5.740;2023-06-04T09:04:13;55843.47;;;-142.21;35.67
5053;BME280;2545;50.892;5.740;2023-06-04T09:06:39;55859.16;;;-142.21;34.70
5053;BME280;2545;50.892;5.740;2023-06-04T09:09:08;55814.06;;;-142.21;35.06
5053;BME280;2545;50.892;5.740;2023-06-04T09:12:01;55825.81;;;-142.21;35.51
5053;BME280;2545;50.892;5.740;2023-06-04T09:14:26;55796.41;;;-142.21;34.96
5053;BME280;2545;50.892;5.740;2023-06-04T09:16:53;55872.88;;;-142.21;34.16
5053;BME280;2545;50.892;5.740;2023-06-04T09:19:20;55810.13;;;-142.21;34.62
5053;BME280;2545;50.892;5.740;2023-06-04T09:21:56;55806.22;;;-142.21;34.18
5053;BME280;2545;50.892;5.740;2023-06-04T09:24:24;55829.75;;;-142.21;34.52
5053;BME280;2545;50.892;5.740;2023-06-04T09:26:50;55794.44;;;-142.21;33.76
5053;BME280;2545;50.892;5.740;2023-06-04T09:29:16;55792.50;;;-142.21;33.69
5053;BME280;2545;50.892;5.740;2023-06-04T09:31:57;55788.56;;;-142.21;33.72
5053;BME280;2545;50.892;5.740;2023-06-04T09:34:29;55821.91;;;-142.21;33.08
5053;BME280;2545;50.892;5.740;2023-06-04T09:36:55;55812.09;;;-142.21;32.99
5053;BME280;2545;50.892;5.740;2023-06-04T09:39:21;55798.38;;;-142.21;32.78
5053;BME280;2545;50.892;5.740;2023-06-04T09:42:07;55821.91;;;-142.21;32.61
5053;BME280;2545;50.892;5.740;2023-06-04T09:44:42;55784.66;;;-142.21;33.20
5053;BME280;2545;50.892;5.740;2023-06-04T09:47:08;55800.31;;;-142.21;32.65
5053;BME280;2545;50.892;5.740;2023-06-04T09:49:43;55816.00;;;-142.21;32.19
5053;BME280;2545;50.892;5.740;2023-06-04T09:52:09;55810.13;;;-142.21;31.93
5053;BME280;2545;50.892;5.740;2023-06-04T09:54:38;55814.06;;;-142.21;31.70
5053;BME280;2545;50.892;5.740;2023-06-04T09:57:15;55772.88;;;-142.21;31.00
5053;BME280;2545;50.892;5.740;2023-06-04T09:59:43;55788.56;;;-142.21;31.84
5053;BME280;2545;50.892;5.740;2023-06-04T10:02:11;55816.00;;;-142.21;31.28
5053;BME280;2545;50.892;5.740;2023-06-04T10:04:40;55743.47;;;-142.21;30.72
5053;BME280;2545;50.892;5.740;2023-06-04T10:07:06;55792.50;;;-142.21;30.67
5053;BME280;2545;50.892;5.740;2023-06-04T10:09:35;55741.50;;;-142.21;30.78
5053;BME280;2545;50.892;5.740;2023-06-04T10:12:08;55808.16;;;-142.21;30.55
5053;BME280;2545;50.892;5.740;2023-06-04T10:14:39;55806.22;;;-142.21;30.26
5053;BME280;2545;50.892;5.740;2023-06-04T10:17:07;55784.66;;;-142.21;30.71
5053;BME280;2545;50.892;5.740;2023-06-04T10:19:35;55759.16;;;-142.21;29.79
5053;BME280;2545;50.892;5.740;2023-06-04T10:22:02;55792.50;;;-142.21;29.69
5053;BME280;2545;50.892;5.740;2023-06-04T10:24:28;55776.81;;;-142.21;29.10
5053;BME280;2545;50.892;5.740;2023-06-04T10:26:54;55755.22;;;-142.21;29.20
5053;BME280;2545;50.892;5.740;2023-06-04T10:29:23;55751.31;;;-142.21;28.54
5053;BME280;2545;50.892;5.740;2023-06-04T10:31:53;55716.03;;;-142.21;27.79
5053;BME280;2545;50.892;5.740;2023-06-04T10:34:18;55704.25;;;-142.21;27.17
5053;BME280;2545;50.892;5.740;2023-06-04T10:36:44;55735.63;;;-142.21;26.59
5053;BME280;2545;50.892;5.740;2023-06-04T10:39:10;55735.63;;;-142.21;25.96
5053;BME280;2545;50.892;5.740;2023-06-04T10:41:36;55751.31;;;-142.21;25.84
5053;BME280;2545;50.892;5.740;2023-06-04T10:44:02;55698.38;;;-142.21;24.79
5053;BME280;2545;50.892;5.740;2023-06-04T10:46:38;55680.72;;;-142.21;24.65
5053;BME280;2545;50.892;5.740;2023-06-04T10:49:05;55712.09;;;-142.21;24.59
5053;BME280;2545;50.892;5.740;2023-06-04T10:51:31;55610.16;;;-142.21;24.41
5053;BME280;2545;50.892;5.740;2023-06-04T10:53:58;55692.50;;;-142.21;24.95
5053;BME280;2545;50.892;5.740;2023-06-04T10:56:27;55637.59;;;-142.21;24.29
5053;BME280;2545;50.892;5.740;2023-06-04T10:58:52;55647.41;;;-142.21;23.41
5053;BME280;2545;50.892;5.740;2023-06-04T11:01:28;55619.94;;;-142.21;23.34
5053;BME280;2545;50.892;5.740;2023-06-04T11:03:57;55614.06;;;-142.21;24.08
5053;BME280;2545;50.892;5.740;2023-06-04T11:06:23;55645.44;;;-142.21;23.58
5053;BME280;2545;50.892;5.740;2023-06-04T11:09:04;55641.53;;;-142.21;22.78
5053;BME280;2545;50.892;5.740;2023-06-04T11:11:30;55598.38;;;-142.21;22.35
5053;BME280;2545;50.892;5.740;2023-06-04T11:14:07;55621.91;;;-142.21;22.92
5053;BME280;2545;50.892;5.740;2023-06-04T11:16:32;55633.69;;;-142.21;22.55
5053;BME280;2545;50.892;5.740;2023-06-04T11:18:57;55608.19;;;-142.21;22.77
5053;BME280;2545;50.892;5.740;2023-06-04T11:21:24;55580.75;;;-142.21;22.35
5053;BME280;2545;50.892;5.740;2023-06-04T11:23:54;55618.00;;;-142.21;22.14
5053;BME280;2545;50.892;5.740;2023-06-04T11:26:20;55574.84;;;-142.21;22.85
5053;BME280;2545;50.892;5.740;2023-06-04T11:28:49;55594.47;;;-142.21;22.24
5053;BME280;2545;50.892;5.740;2023-06-04T11:31:14;55610.16;;;-142.21;21.37
5053;BME280;2545;50.892;5.740;2023-06-04T11:33:47;55602.31;;;-142.21;21.92
5053;BME280;2545;50.892;5.740;2023-06-04T11:36:26;55592.50;;;-142.21;21.58
5053;BME280;2545;50.892;5.740;2023-06-04T11:38:59;55606.22;;;-142.21;22.02
5053;BME280;2545;50.892;5.740;2023-06-04T11:41:31;55576.81;;;-142.21;22.00
5053;BME280;2545;50.892;5.740;2023-06-04T11:44:01;55598.38;;;-142.21;21.16
5053;BME280;2545;50.892;5.740;2023-06-04T11:46:26;55618.00;;;-142.21;20.70
5053;BME280;2545;50.892;5.740;2023-06-04T11:48:52;55549.38;;;-142.21;21.06
5053;BME280;2545;50.892;5.740;2023-06-04T11:51:19;55519.97;;;-142.21;21.16
5053;BME280;2545;50.892;5.740;2023-06-04T11:53:45;55533.69;;;-142.21;21.15
5053;BME280;2545;50.892;5.740;2023-06-04T11:56:11;55559.19;;;-142.21;20.93
5053;BME280;2545;50.892;5.740;2023-06-04T11:58:36;55553.28;;;-142.21;20.66
5053;BME280;2545;50.892;5.740;2023-06-04T12:01:02;55502.31;;;-142.21;20.49
5053;BME280;2545;50.892;5.740;2023-06-04T12:03:38;55541.53;;;-142.21;20.52
5053;BME280;2545;50.892;5.740;2023-06-04T12:06:18;55533.69;;;-142.21;21.16
5053;BME280;2545;50.892;5.740;2023-06-04T12:08:45;55555.25;;;-142.21;20.84
5053;BME280;2545;50.892;5.740;2023-06-04T12:11:23;55523.88;;;-142.21;20.66
5053;BME280;2545;50.892;5.740;2023-06-04T12:13:50;55539.56;;;-142.21;20.16
5053;BME280;2545;50.892;5.740;2023-06-04T12:16:15;55514.09;;;-142.21;20.27
5053;BME280;2545;50.892;5.740;2023-06-04T12:18:40;55512.13;;;-142.21;20.34
5053;BME280;2545;50.892;5.740;2023-06-04T12:21:24;55529.78;;;-142.21;20.39
5053;BME280;2545;50.892;5.740;2023-06-04T12:24:12;55541.53;;;-142.21;20.17
5053;BME280;2545;50.892;5.740;2023-06-04T12:26:39;55512.13;;;-142.21;19.92
5053;BME280;2545;50.892;5.740;2023-06-04T12:29:17;55535.66;;;-142.21;19.95
5053;BME280;2545;50.892;5.740;2023-06-04T12:31:44;55570.94;;;-142.21;20.30
5053;BME280;2545;50.892;5.740;2023-06-04T12:34:11;55523.88;;;-142.21;20.48
5053;BME280;2545;50.892;5.740;2023-06-04T12:36:37;55537.59;;;-142.21;19.56
5053;BME280;2545;50.892;5.740;2023-06-04T12:39:04;55506.25;;;-142.21;19.75
5053;BME280;2545;50.892;5.740;2023-06-04T12:41:31;55602.31;;;-142.21;19.83
5053;BME280;2545;50.892;5.740;2023-06-04T12:43:56;55510.16;;;-142.21;20.37
5053;BME280;2545;50.892;5.740;2023-06-04T12:46:23;55523.88;;;-142.21;19.58
5053;BME280;2545;50.892;5.740;2023-06-04T12:48:52;55561.13;;;-142.21;19.56
5053;BME280;2545;50.892;5.740;2023-06-04T12:51:18;55455.28;;;-142.21;19.60
5053;BME280;2545;50.892;5.740;2023-06-04T12:53:44;55443.50;;;-142.21;19.42
5053;BME280;2545;50.892;5.740;2023-06-04T12:56:10;55578.78;;;-142.21;19.84
5053;BME280;2545;50.892;5.740;2023-06-04T12:58:35;55478.78;;;-142.21;18.84
5053;BME280;2545;50.892;5.740;2023-06-04T13:01:01;55502.31;;;-142.21;19.60
5053;BME280;2545;50.892;5.740;2023-06-04T13:03:27;55514.09;;;-142.21;19.85
5053;BME280;2545;50.892;5.740;2023-06-04T13:05:52;55512.13;;;-142.21;19.77